sensor_id;sensor_type;location;lat;lon;timestamp;temperature;humidity
51619;DHT22;38518;53.164;5.430;2023-03-24T00:02:16;10.40;1.00
51619;DHT22;38518;53.164;5.430;2023-03-24T00:04:42;10.40;1.00
51619;DHT22;38518;53.164;5.430;2023-03-24T00:07:09;10.30;1.00
51619;DHT22;38518;53.164;5.430;2023-03-24T00:09:43;10.30;1.00
51619;DHT22;38518;53.164;5.430;2023-03-24T00:12:10;10.30;1.00
51619;DHT22;38518;53.164;5.430;2023-03-24T00:14:37;10.40;1.00
51619;DHT22;38518;53.164;5.430;2023-03-24T00:17:07;10.40;9.50
51619;DHT22;38518;53.164;5.430;2023-03-24T00:19:38;10.40;17.10
51619;DHT22;38518;53.164;5.430;2023-03-24T00:22:05;10.40;23.80
51619;DHT22;38518;53.164;5.430;2023-03-24T00:24:31;10.30;38.70
51619;DHT22;38518;53.164;5.430;2023-03-24T00:26:57;10.60;39.20
51619;DHT22;38518;53.164;5.430;2023-03-24T00:29:24;10.30;44.60
51619;DHT22;38518;53.164;5.430;2023-03-24T00:31:51;10.30;53.10
51619;DHT22;38518;53.164;5.430;2023-03-24T00:34:18;10.20;55.10
51619;DHT22;38518;53.164;5.430;2023-03-24T00:36:49;10.30;58.80
51619;DHT22;38518;53.164;5.430;2023-03-24T00:39:19;10.20;76.20
51619;DHT22;38518;53.164;5.430;2023-03-24T00:41:46;10.30;86.30
51619;DHT22;38518;53.164;5.430;2023-03-24T00:44:14;10.20;99.00
51619;DHT22;38518;53.164;5.430;2023-03-24T00:46:47;10.20;99.90
51619;DHT22;38518;53.164;5.430;2023-03-24T00:49:31;10.20;99.90
51619;DHT22;38518;53.164;5.430;2023-03-24T00:52:19;10.20;99.90
51619;DHT22;38518;53.164;5.430;2023-03-24T00:54:51;10.10;99.90
51619;DHT22;38518;53.164;5.430;2023-03-24T00:57:20;10.20;99.90
51619;DHT22;38518;53.164;5.430;2023-03-24T00:59:51;10.30;99.90
51619;DHT22;38518;53.164;5.430;2023-03-24T01:02:21;10.20;99.90
51619;DHT22;38518;53.164;5.430;2023-03-24T01:04:59;10.20;99.90
51619;DHT22;38518;53.164;5.430;2023-03-24T01:07:27;10.10;99.90
51619;DHT22;38518;53.164;5.430;2023-03-24T01:09:55;10.20;99.90
51619;DHT22;38518;53.164;5.430;2023-03-24T01:12:30;10.30;99.90
51619;DHT22;38518;53.164;5.430;2023-03-24T01:15:01;10.20;99.90
51619;DHT22;38518;53.164;5.430;2023-03-24T01:17:30;10.30;99.90
51619;DHT22;38518;53.164;5.430;2023-03-24T01:19:57;10.30;99.90
51619;DHT22;38518;53.164;5.430;2023-03-24T01:22:28;10.30;99.90
51619;DHT22;38518;53.164;5.430;2023-03-24T01:24:54;10.30;99.90
51619;DHT22;38518;53.164;5.430;2023-03-24T01:27:20;10.30;99.90
51619;DHT22;38518;53.164;5.430;2023-03-24T01:29:46;10.20;1.00
51619;DHT22;38518;53.164;5.430;2023-03-24T01:32:12;10.50;1.00
51619;DHT22;38518;53.164;5.430;2023-03-24T01:34:37;10.30;1.00
51619;DHT22;38518;53.164;5.430;2023-03-24T01:37:03;10.40;1.00
51619;DHT22;38518;53.164;5.430;2023-03-24T01:39:29;10.30;1.00
51619;DHT22;38518;53.164;5.430;2023-03-24T01:41:55;10.50;1.00
51619;DHT22;38518;53.164;5.430;2023-03-24T01:44:33;9.90;1.00
51619;DHT22;38518;53.164;5.430;2023-03-24T01:47:00;10.40;1.00
51619;DHT22;38518;53.164;5.430;2023-03-24T01:49:36;10.40;1.00
51619;DHT22;38518;53.164;5.430;2023-03-24T01:52:06;10.30;1.00
51619;DHT22;38518;53.164;5.430;2023-03-24T01:54:45;10.40;1.00
51619;DHT22;38518;53.164;5.430;2023-03-24T01:57:39;10.40;1.00
51619;DHT22;38518;53.164;5.430;2023-03-24T02:00:12;10.30;1.00
51619;DHT22;38518;53.164;5.430;2023-03-24T02:02:45;10.30;21.40
51619;DHT22;38518;53.164;5.430;2023-03-24T02:05:14;10.40;43.70
51619;DHT22;38518;53.164;5.430;2023-03-24T02:10:33;10.40;84.90
51619;DHT22;38518;53.164;5.430;2023-03-24T02:13:00;10.50;94.40
51619;DHT22;38518;53.164;5.430;2023-03-24T02:15:28;10.30;94.00
51619;DHT22;38518;53.164;5.430;2023-03-24T02:18:20;10.20;93.50
51619;DHT22;38518;53.164;5.430;2023-03-24T02:40:14;9.90;1.00
51619;DHT22;38518;53.164;5.430;2023-03-24T02:43:24;9.90;1.00
51619;DHT22;38518;53.164;5.430;2023-03-24T02:46:12;9.80;1.00
51619;DHT22;38518;53.164;5.430;2023-03-24T02:57:21;9.70;99.90
51619;DHT22;38518;53.164;5.430;2023-03-24T02:59:49;9.70;99.90
51619;DHT22;38518;53.164;5.430;2023-03-24T03:02:34;9.70;99.90
51619;DHT22;38518;53.164;5.430;2023-03-24T03:05:06;9.60;99.90
51619;DHT22;38518;53.164;5.430;2023-03-24T03:07:40;9.50;99.90
51619;DHT22;38518;53.164;5.430;2023-03-24T03:10:17;9.60;99.90
51619;DHT22;38518;53.164;5.430;2023-03-24T03:12:47;9.50;99.90
51619;DHT22;38518;53.164;5.430;2023-03-24T03:15:20;9.40;90.10
51619;DHT22;38518;53.164;5.430;2023-03-24T03:18:04;9.40;63.00
51619;DHT22;38518;53.164;5.430;2023-03-24T03:20:37;9.40;38.40
51619;DHT22;38518;53.164;5.430;2023-03-24T03:23:07;9.20;20.10
51619;DHT22;38518;53.164;5.430;2023-03-24T03:25:38;9.30;13.50
51619;DHT22;38518;53.164;5.430;2023-03-24T03:28:08;9.40;2.70
51619;DHT22;38518;53.164;5.430;2023-03-24T03:31:05;9.40;1.00
51619;DHT22;38518;53.164;5.430;2023-03-24T03:33:44;9.20;1.00
51619;DHT22;38518;53.164;5.430;2023-03-24T03:36:25;9.10;1.00
51619;DHT22;38518;53.164;5.430;2023-03-24T03:41:36;9.10;1.00
51619;DHT22;38518;53.164;5.430;2023-03-24T03:44:02;9.00;1.00
51619;DHT22;38518;53.164;5.430;2023-03-24T03:46:28;8.90;1.00
51619;DHT22;38518;53.164;5.430;2023-03-24T03:48:54;9.00;1.00
51619;DHT22;38518;53.164;5.430;2023-03-24T03:51:20;8.80;1.00
51619;DHT22;38518;53.164;5.430;2023-03-24T03:53:52;8.80;1.00
51619;DHT22;38518;53.164;5.430;2023-03-24T03:56:23;8.80;1.00
51619;DHT22;38518;53.164;5.430;2023-03-24T03:58:49;8.70;1.00
51619;DHT22;38518;53.164;5.430;2023-03-24T04:01:19;8.80;1.00
51619;DHT22;38518;53.164;5.430;2023-03-24T04:15:35;8.60;1.00
51619;DHT22;38518;53.164;5.430;2023-03-24T04:23:46;8.50;1.00
51619;DHT22;38518;53.164;5.430;2023-03-24T04:26:34;8.70;1.00
51619;DHT22;38518;53.164;5.430;2023-03-24T04:29:34;8.60;1.00
51619;DHT22;38518;53.164;5.430;2023-03-24T04:34:56;8.50;1.00
51619;DHT22;38518;53.164;5.430;2023-03-24T04:37:29;8.60;1.00
51619;DHT22;38518;53.164;5.430;2023-03-24T04:40:10;8.40;1.00
51619;DHT22;38518;53.164;5.430;2023-03-24T04:42:45;8.70;1.00
51619;DHT22;38518;53.164;5.430;2023-03-24T04:45:12;8.50;1.00
51619;DHT22;38518;53.164;5.430;2023-03-24T04:47:52;8.50;1.00
51619;DHT22;38518;53.164;5.430;2023-03-24T04:50:35;8.60;1.00
51619;DHT22;38518;53.164;5.430;2023-03-24T04:53:02;8.40;1.00
51619;DHT22;38518;53.164;5.430;2023-03-24T04:58:25;8.60;1.00
51619;DHT22;38518;53.164;5.430;2023-03-24T05:00:51;8.50;1.00
51619;DHT22;38518;53.164;5.430;2023-03-24T05:03:20;8.50;99.90
51619;DHT22;38518;53.164;5.430;2023-03-24T05:05:48;8.60;1.00
51619;DHT22;38518;53.164;5.430;2023-03-24T05:08:15;8.50;99.90
51619;DHT22;38518;53.164;5.430;2023-03-24T05:10:41;8.50;99.90
51619;DHT22;38518;53.164;5.430;2023-03-24T05:13:07;8.50;99.90
51619;DHT22;38518;53.164;5.430;2023-03-24T05:15:34;8.60;99.90
51619;DHT22;38518;53.164;5.430;2023-03-24T05:17:59;8.40;99.90
51619;DHT22;38518;53.164;5.430;2023-03-24T05:20:26;8.80;99.90
51619;DHT22;38518;53.164;5.430;2023-03-24T05:22:52;8.50;99.90
51619;DHT22;38518;53.164;5.430;2023-03-24T05:25:18;8.50;99.90
51619;DHT22;38518;53.164;5.430;2023-03-24T05:27:45;8.50;99.90
51619;DHT22;38518;53.164;5.430;2023-03-24T05:30:11;8.60;99.90
51619;DHT22;38518;53.164;5.430;2023-03-24T05:32:37;8.50;99.90
51619;DHT22;38518;53.164;5.430;2023-03-24T05:35:04;8.40;99.90
51619;DHT22;38518;53.164;5.430;2023-03-24T05:37:30;8.30;99.90
51619;DHT22;38518;53.164;5.430;2023-03-24T05:39:55;8.40;99.90
51619;DHT22;38518;53.164;5.430;2023-03-24T05:42:21;8.70;99.90
51619;DHT22;38518;53.164;5.430;2023-03-24T05:44:47;8.50;99.90
51619;DHT22;38518;53.164;5.430;2023-03-24T05:47:13;8.50;99.90
51619;DHT22;38518;53.164;5.430;2023-03-24T05:49:44;8.70;99.90
51619;DHT22;38518;53.164;5.430;2023-03-24T05:52:10;8.60;99.90
51619;DHT22;38518;53.164;5.430;2023-03-24T05:54:37;8.60;99.90
51619;DHT22;38518;53.164;5.430;2023-03-24T05:57:11;8.60;99.90
51619;DHT22;38518;53.164;5.430;2023-03-24T05:59:37;8.50;99.90
51619;DHT22;38518;53.164;5.430;2023-03-24T06:02:04;8.50;99.90
51619;DHT22;38518;53.164;5.430;2023-03-24T06:04:29;8.70;99.90
51619;DHT22;38518;53.164;5.430;2023-03-24T06:06:56;8.60;99.90
51619;DHT22;38518;53.164;5.430;2023-03-24T06:09:25;8.70;99.90
51619;DHT22;38518;53.164;5.430;2023-03-24T06:11:57;8.50;99.90
51619;DHT22;38518;53.164;5.430;2023-03-24T06:14:23;8.40;99.90
51619;DHT22;38518;53.164;5.430;2023-03-24T06:16:49;8.70;99.90
51619;DHT22;38518;53.164;5.430;2023-03-24T06:19:15;8.70;99.90
51619;DHT22;38518;53.164;5.430;2023-03-24T06:21:41;8.70;99.90
51619;DHT22;38518;53.164;5.430;2023-03-24T06:24:09;8.70;99.90
51619;DHT22;38518;53.164;5.430;2023-03-24T06:26:39;8.80;99.90
51619;DHT22;38518;53.164;5.430;2023-03-24T06:29:07;8.80;99.90
51619;DHT22;38518;53.164;5.430;2023-03-24T06:31:32;9.00;99.90
51619;DHT22;38518;53.164;5.430;2023-03-24T06:34:00;9.10;99.90
51619;DHT22;38518;53.164;5.430;2023-03-24T06:36:26;9.00;99.90
51619;DHT22;38518;53.164;5.430;2023-03-24T06:38:52;9.20;99.90
51619;DHT22;38518;53.164;5.430;2023-03-24T06:41:18;9.30;99.90
51619;DHT22;38518;53.164;5.430;2023-03-24T06:43:43;9.40;99.90
51619;DHT22;38518;53.164;5.430;2023-03-24T06:46:10;9.60;50.30
51619;DHT22;38518;53.164;5.430;2023-03-24T06:48:36;9.70;1.00
51619;DHT22;38518;53.164;5.430;2023-03-24T06:51:02;9.80;1.00
51619;DHT22;38518;53.164;5.430;2023-03-24T06:53:28;9.80;1.00
51619;DHT22;38518;53.164;5.430;2023-03-24T06:55:54;9.80;1.00
51619;DHT22;38518;53.164;5.430;2023-03-24T06:58:20;9.60;1.00
51619;DHT22;38518;53.164;5.430;2023-03-24T07:00:46;9.50;1.00
51619;DHT22;38518;53.164;5.430;2023-03-24T07:03:14;9.50;1.00
51619;DHT22;38518;53.164;5.430;2023-03-24T07:05:41;9.30;1.00
51619;DHT22;38518;53.164;5.430;2023-03-24T07:08:08;9.50;1.00
51619;DHT22;38518;53.164;5.430;2023-03-24T07:10:38;9.60;1.00
51619;DHT22;38518;53.164;5.430;2023-03-24T07:13:05;9.60;1.00
51619;DHT22;38518;53.164;5.430;2023-03-24T07:15:31;9.80;1.00
51619;DHT22;38518;53.164;5.430;2023-03-24T07:17:57;9.60;1.00
51619;DHT22;38518;53.164;5.430;2023-03-24T07:20:23;9.90;1.00
51619;DHT22;38518;53.164;5.430;2023-03-24T07:22:49;10.60;99.90
51619;DHT22;38518;53.164;5.430;2023-03-24T07:25:15;10.60;99.90
51619;DHT22;38518;53.164;5.430;2023-03-24T07:27:45;11.70;99.90
51619;DHT22;38518;53.164;5.430;2023-03-24T07:30:11;11.10;99.90
51619;DHT22;38518;53.164;5.430;2023-03-24T07:32:37;11.20;99.90
51619;DHT22;38518;53.164;5.430;2023-03-24T07:35:08;11.40;99.90
51619;DHT22;38518;53.164;5.430;2023-03-24T07:37:38;11.30;99.90
51619;DHT22;38518;53.164;5.430;2023-03-24T07:40:05;11.80;99.90
51619;DHT22;38518;53.164;5.430;2023-03-24T07:42:33;11.90;99.90
51619;DHT22;38518;53.164;5.430;2023-03-24T07:45:00;12.10;99.90
51619;DHT22;38518;53.164;5.430;2023-03-24T07:47:25;11.80;99.90
51619;DHT22;38518;53.164;5.430;2023-03-24T07:49:51;12.30;99.90
51619;DHT22;38518;53.164;5.430;2023-03-24T07:52:17;12.00;99.90
51619;DHT22;38518;53.164;5.430;2023-03-24T07:54:43;12.70;99.90
51619;DHT22;38518;53.164;5.430;2023-03-24T07:57:08;12.50;99.90
51619;DHT22;38518;53.164;5.430;2023-03-24T07:59:34;12.70;99.90
51619;DHT22;38518;53.164;5.430;2023-03-24T08:02:00;13.10;99.90
51619;DHT22;38518;53.164;5.430;2023-03-24T08:04:26;12.90;99.90
51619;DHT22;38518;53.164;5.430;2023-03-24T08:06:53;12.80;99.90
51619;DHT22;38518;53.164;5.430;2023-03-24T08:09:19;12.90;99.90
51619;DHT22;38518;53.164;5.430;2023-03-24T08:11:45;13.00;99.90
51619;DHT22;38518;53.164;5.430;2023-03-24T08:14:11;13.00;93.40
51619;DHT22;38518;53.164;5.430;2023-03-24T08:16:36;13.20;98.40
51619;DHT22;38518;53.164;5.430;2023-03-24T08:19:03;13.20;99.40
51619;DHT22;38518;53.164;5.430;2023-03-24T08:21:29;13.20;77.50
51619;DHT22;38518;53.164;5.430;2023-03-24T08:23:55;14.00;76.00
51619;DHT22;38518;53.164;5.430;2023-03-24T08:26:21;13.90;89.80
51619;DHT22;38518;53.164;5.430;2023-03-24T08:28:47;14.20;76.40
51619;DHT22;38518;53.164;5.430;2023-03-24T08:31:14;14.00;56.60
51619;DHT22;38518;53.164;5.430;2023-03-24T08:33:40;14.30;66.30
51619;DHT22;38518;53.164;5.430;2023-03-24T08:36:06;14.30;70.10
51619;DHT22;38518;53.164;5.430;2023-03-24T08:38:33;13.30;70.80
51619;DHT22;38518;53.164;5.430;2023-03-24T08:41:01;14.60;50.60
51619;DHT22;38518;53.164;5.430;2023-03-24T08:43:32;14.90;49.60
51619;DHT22;38518;53.164;5.430;2023-03-24T08:45:59;15.00;26.40
51619;DHT22;38518;53.164;5.430;2023-03-24T08:48:27;15.10;13.00
51619;DHT22;38518;53.164;5.430;2023-03-24T08:50:54;15.10;18.30
51619;DHT22;38518;53.164;5.430;2023-03-24T08:53:20;15.20;18.60
51619;DHT22;38518;53.164;5.430;2023-03-24T08:55:46;15.00;16.10
51619;DHT22;38518;53.164;5.430;2023-03-24T08:58:17;15.00;11.60
51619;DHT22;38518;53.164;5.430;2023-03-24T09:00:44;14.90;1.00
51619;DHT22;38518;53.164;5.430;2023-03-24T09:03:16;15.20;1.00
51619;DHT22;38518;53.164;5.430;2023-03-24T09:05:43;15.10;1.00
51619;DHT22;38518;53.164;5.430;2023-03-24T09:08:11;14.80;1.00
51619;DHT22;38518;53.164;5.430;2023-03-24T09:10:38;15.40;1.00
51619;DHT22;38518;53.164;5.430;2023-03-24T09:13:04;15.50;1.00
51619;DHT22;38518;53.164;5.430;2023-03-24T09:15:30;15.50;1.00
51619;DHT22;38518;53.164;5.430;2023-03-24T09:17:56;15.60;1.00
51619;DHT22;38518;53.164;5.430;2023-03-24T09:20:22;14.10;5.10
51619;DHT22;38518;53.164;5.430;2023-03-24T09:22:48;16.00;1.00
51619;DHT22;38518;53.164;5.430;2023-03-24T09:25:19;16.00;1.00
51619;DHT22;38518;53.164;5.430;2023-03-24T09:27:46;16.00;1.00
51619;DHT22;38518;53.164;5.430;2023-03-24T09:30:13;16.70;1.00
51619;DHT22;38518;53.164;5.430;2023-03-24T09:32:39;15.80;1.00
51619;DHT22;38518;53.164;5.430;2023-03-24T09:35:05;15.90;1.00
51619;DHT22;38518;53.164;5.430;2023-03-24T09:37:33;16.70;1.00
51619;DHT22;38518;53.164;5.430;2023-03-24T09:39:59;16.10;1.00
51619;DHT22;38518;53.164;5.430;2023-03-24T09:42:33;16.20;1.00
51619;DHT22;38518;53.164;5.430;2023-03-24T09:45:06;16.40;1.00
51619;DHT22;38518;53.164;5.430;2023-03-24T09:50:33;16.70;1.00
51619;DHT22;38518;53.164;5.430;2023-03-24T09:53:08;16.70;1.00
51619;DHT22;38518;53.164;5.430;2023-03-24T09:55:41;16.90;1.00
51619;DHT22;38518;53.164;5.430;2023-03-24T09:58:10;17.60;1.00
51619;DHT22;38518;53.164;5.430;2023-03-24T10:00:37;17.30;1.00
51619;DHT22;38518;53.164;5.430;2023-03-24T10:03:18;17.20;1.00
51619;DHT22;38518;53.164;5.430;2023-03-24T10:06:04;17.30;1.00
51619;DHT22;38518;53.164;5.430;2023-03-24T10:08:46;17.20;1.00
51619;DHT22;38518;53.164;5.430;2023-03-24T10:11:29;17.20;1.00
51619;DHT22;38518;53.164;5.430;2023-03-24T10:19:36;17.20;1.00
51619;DHT22;38518;53.164;5.430;2023-03-24T10:22:07;17.40;1.00
51619;DHT22;38518;53.164;5.430;2023-03-24T10:24:44;17.40;1.00
51619;DHT22;38518;53.164;5.430;2023-03-24T10:29:42;18.00;1.00
51619;DHT22;38518;53.164;5.430;2023-03-24T10:32:17;17.80;1.00
51619;DHT22;38518;53.164;5.430;2023-03-24T10:34:56;17.70;1.00
51619;DHT22;38518;53.164;5.430;2023-03-24T10:37:23;17.70;1.00
51619;DHT22;38518;53.164;5.430;2023-03-24T10:39:50;17.70;1.00
51619;DHT22;38518;53.164;5.430;2023-03-24T10:42:24;18.50;1.00
51619;DHT22;38518;53.164;5.430;2023-03-24T10:44:50;18.00;1.00
51619;DHT22;38518;53.164;5.430;2023-03-24T10:47:21;18.70;1.00
51619;DHT22;38518;53.164;5.430;2023-03-24T10:50:00;18.00;1.00
51619;DHT22;38518;53.164;5.430;2023-03-24T10:52:27;18.10;1.00
51619;DHT22;38518;53.164;5.430;2023-03-24T10:55:01;18.30;1.00
51619;DHT22;38518;53.164;5.430;2023-03-24T10:57:28;18.50;1.00
51619;DHT22;38518;53.164;5.430;2023-03-24T11:00:06;18.70;1.00
51619;DHT22;38518;53.164;5.430;2023-03-24T11:02:40;18.60;1.00
51619;DHT22;38518;53.164;5.430;2023-03-24T11:05:20;20.20;1.00
51619;DHT22;38518;53.164;5.430;2023-03-24T11:07:49;17.30;1.00
51619;DHT22;38518;53.164;5.430;2023-03-24T11:10:24;18.60;1.00
51619;DHT22;38518;53.164;5.430;2023-03-24T11:15:27;18.90;1.00
51619;DHT22;38518;53.164;5.430;2023-03-24T11:18:14;18.80;1.00
51619;DHT22;38518;53.164;5.430;2023-03-24T11:20:45;18.50;1.00
51619;DHT22;38518;53.164;5.430;2023-03-24T11:28:39;18.40;1.00
51619;DHT22;38518;53.164;5.430;2023-03-24T11:31:10;18.40;1.00
51619;DHT22;38518;53.164;5.430;2023-03-24T11:33:49;18.50;1.00
51619;DHT22;38518;53.164;5.430;2023-03-24T11:39:21;18.40;1.00
51619;DHT22;38518;53.164;5.430;2023-03-24T11:47:29;18.20;1.00
51619;DHT22;38518;53.164;5.430;2023-03-24T11:52:51;18.30;1.00
51619;DHT22;38518;53.164;5.430;2023-03-24T12:00:50;18.70;1.00
51619;DHT22;38518;53.164;5.430;2023-03-24T12:09:08;19.10;1.00
51619;DHT22;38518;53.164;5.430;2023-03-24T12:11:43;19.00;1.00
51619;DHT22;38518;53.164;5.430;2023-03-24T12:14:22;20.10;1.00
51619;DHT22;38518;53.164;5.430;2023-03-24T12:17:11;18.20;1.00
51619;DHT22;38518;53.164;5.430;2023-03-24T12:22:45;18.60;1.00
51619;DHT22;38518;53.164;5.430;2023-03-24T12:30:51;19.00;1.00
51619;DHT22;38518;53.164;5.430;2023-03-24T12:36:12;19.90;1.00
51619;DHT22;38518;53.164;5.430;2023-03-24T12:55:38;19.70;1.00
51619;DHT22;38518;53.164;5.430;2023-03-24T13:03:45;20.10;1.00
51619;DHT22;38518;53.164;5.430;2023-03-24T13:06:29;20.10;1.00
51619;DHT22;38518;53.164;5.430;2023-03-24T13:09:04;20.00;1.00
51619;DHT22;38518;53.164;5.430;2023-03-24T13:11:40;19.90;1.00
51619;DHT22;38518;53.164;5.430;2023-03-24T13:14:13;20.20;1.00
51619;DHT22;38518;53.164;5.430;2023-03-24T13:16:41;20.10;1.00
51619;DHT22;38518;53.164;5.430;2023-03-24T13:19:19;20.00;1.00
51619;DHT22;38518;53.164;5.430;2023-03-24T13:21:49;21.00;1.00
51619;DHT22;38518;53.164;5.430;2023-03-24T13:24:16;20.20;1.00
51619;DHT22;38518;53.164;5.430;2023-03-24T13:27:37;20.20;1.00
51619;DHT22;38518;53.164;5.430;2023-03-24T13:32:22;20.20;1.00
51619;DHT22;38518;53.164;5.430;2023-03-24T13:35:00;19.80;1.00
51619;DHT22;38518;53.164;5.430;2023-03-24T13:37:34;20.10;1.00
51619;DHT22;38518;53.164;5.430;2023-03-24T13:43:25;20.10;1.00
51619;DHT22;38518;53.164;5.430;2023-03-24T13:46:11;20.20;1.00
51619;DHT22;38518;53.164;5.430;2023-03-24T13:48:45;20.10;1.00
51619;DHT22;38518;53.164;5.430;2023-03-24T13:51:34;19.90;1.00
51619;DHT22;38518;53.164;5.430;2023-03-24T13:54:17;19.80;1.00
51619;DHT22;38518;53.164;5.430;2023-03-24T13:56:55;19.70;1.00
51619;DHT22;38518;53.164;5.430;2023-03-24T13:59:30;19.40;1.00
51619;DHT22;38518;53.164;5.430;2023-03-24T14:10:38;19.50;1.00
51619;DHT22;38518;53.164;5.430;2023-03-24T14:13:18;19.40;1.00
51619;DHT22;38518;53.164;5.430;2023-03-24T14:15:51;19.60;1.00
51619;DHT22;38518;53.164;5.430;2023-03-24T14:23:35;19.40;1.00
51619;DHT22;38518;53.164;5.430;2023-03-24T14:26:34;19.30;1.00
51619;DHT22;38518;53.164;5.430;2023-03-24T14:29:00;19.30;1.00
51619;DHT22;38518;53.164;5.430;2023-03-24T14:31:33;18.70;1.00
51619;DHT22;38518;53.164;5.430;2023-03-24T14:34:13;18.80;1.00
51619;DHT22;38518;53.164;5.430;2023-03-24T14:36:43;19.10;1.00
51619;DHT22;38518;53.164;5.430;2023-03-24T14:39:42;19.40;1.00
51619;DHT22;38518;53.164;5.430;2023-03-24T14:45:52;19.60;1.00
51619;DHT22;38518;53.164;5.430;2023-03-24T14:55:24;18.70;1.00
51619;DHT22;38518;53.164;5.430;2023-03-24T14:58:30;18.90;1.00
51619;DHT22;38518;53.164;5.430;2023-03-24T15:01:04;19.10;1.00
51619;DHT22;38518;53.164;5.430;2023-03-24T15:06:19;19.40;1.00
51619;DHT22;38518;53.164;5.430;2023-03-24T15:08:55;19.20;1.00
51619;DHT22;38518;53.164;5.430;2023-03-24T15:11:46;19.60;1.00
51619;DHT22;38518;53.164;5.430;2023-03-24T15:14:36;19.50;1.00
51619;DHT22;38518;53.164;5.430;2023-03-24T15:17:21;20.80;1.00
51619;DHT22;38518;53.164;5.430;2023-03-24T15:19:53;19.50;1.00
51619;DHT22;38518;53.164;5.430;2023-03-24T15:22:26;21.50;1.00
51619;DHT22;38518;53.164;5.430;2023-03-24T15:24:57;19.80;1.00
51619;DHT22;38518;53.164;5.430;2023-03-24T15:27:28;19.00;1.00
51619;DHT22;38518;53.164;5.430;2023-03-24T15:30:02;18.80;1.00
51619;DHT22;38518;53.164;5.430;2023-03-24T15:32:29;19.00;1.00
51619;DHT22;38518;53.164;5.430;2023-03-24T15:35:05;18.80;1.00
51619;DHT22;38518;53.164;5.430;2023-03-24T15:37:36;18.60;1.00
51619;DHT22;38518;53.164;5.430;2023-03-24T15:40:06;18.80;1.00
51619;DHT22;38518;53.164;5.430;2023-03-24T15:42:39;18.30;1.00
51619;DHT22;38518;53.164;5.430;2023-03-24T15:45:20;18.70;1.00
51619;DHT22;38518;53.164;5.430;2023-03-24T15:47:50;18.60;1.00
51619;DHT22;38518;53.164;5.430;2023-03-24T15:50:35;18.60;1.00
51619;DHT22;38518;53.164;5.430;2023-03-24T15:53:19;18.70;1.00
51619;DHT22;38518;53.164;5.430;2023-03-24T15:55:46;18.50;1.00
51619;DHT22;38518;53.164;5.430;2023-03-24T15:58:28;18.10;1.00
51619;DHT22;38518;53.164;5.430;2023-03-24T16:00:59;18.00;1.00
51619;DHT22;38518;53.164;5.430;2023-03-24T16:03:28;18.20;1.00
51619;DHT22;38518;53.164;5.430;2023-03-24T16:05:55;17.60;1.00
51619;DHT22;38518;53.164;5.430;2023-03-24T16:08:31;17.60;1.00
51619;DHT22;38518;53.164;5.430;2023-03-24T16:11:11;20.10;1.00
51619;DHT22;38518;53.164;5.430;2023-03-24T16:13:42;17.40;1.00
51619;DHT22;38518;53.164;5.430;2023-03-24T16:18:44;17.10;1.00
51619;DHT22;38518;53.164;5.430;2023-03-24T16:23:38;16.70;1.00
51619;DHT22;38518;53.164;5.430;2023-03-24T16:26:18;16.50;1.00
51619;DHT22;38518;53.164;5.430;2023-03-24T16:28:45;16.30;1.00
51619;DHT22;38518;53.164;5.430;2023-03-24T16:31:51;16.50;1.00
51619;DHT22;38518;53.164;5.430;2023-03-24T16:34:21;16.50;1.00
51619;DHT22;38518;53.164;5.430;2023-03-24T16:36:53;15.10;1.00
51619;DHT22;38518;53.164;5.430;2023-03-24T16:39:27;14.10;1.00
51619;DHT22;38518;53.164;5.430;2023-03-24T16:41:56;13.60;1.00
51619;DHT22;38518;53.164;5.430;2023-03-24T16:47:25;12.40;1.00
51619;DHT22;38518;53.164;5.430;2023-03-24T16:49:54;12.70;1.00
51619;DHT22;38518;53.164;5.430;2023-03-24T16:52:28;12.50;1.00
51619;DHT22;38518;53.164;5.430;2023-03-24T16:55:06;12.40;1.00
51619;DHT22;38518;53.164;5.430;2023-03-24T16:57:32;11.80;1.00
51619;DHT22;38518;53.164;5.430;2023-03-24T17:00:12;12.20;1.00
51619;DHT22;38518;53.164;5.430;2023-03-24T17:02:39;13.10;1.00
51619;DHT22;38518;53.164;5.430;2023-03-24T17:07:46;12.10;1.60
51619;DHT22;38518;53.164;5.430;2023-03-24T17:10:28;12.00;1.00
51619;DHT22;38518;53.164;5.430;2023-03-24T17:12:57;12.00;1.00
51619;DHT22;38518;53.164;5.430;2023-03-24T17:15:35;11.70;10.10
51619;DHT22;38518;53.164;5.430;2023-03-24T17:18:01;10.60;1.00
51619;DHT22;38518;53.164;5.430;2023-03-24T17:20:51;11.40;26.50
51619;DHT22;38518;53.164;5.430;2023-03-24T17:23:26;10.70;1.00
51619;DHT22;38518;53.164;5.430;2023-03-24T17:29:22;13.40;9.50
51619;DHT22;38518;53.164;5.430;2023-03-24T17:38:24;11.30;18.40
51619;DHT22;38518;53.164;5.430;2023-03-24T17:41:03;12.90;48.50
51619;DHT22;38518;53.164;5.430;2023-03-24T17:44:08;11.20;61.40
51619;DHT22;38518;53.164;5.430;2023-03-24T17:46:34;11.40;31.70
51619;DHT22;38518;53.164;5.430;2023-03-24T17:49:00;11.00;58.10
51619;DHT22;38518;53.164;5.430;2023-03-24T17:51:25;11.00;70.50
51619;DHT22;38518;53.164;5.430;2023-03-24T17:53:55;11.00;67.90
51619;DHT22;38518;53.164;5.430;2023-03-24T17:56:20;10.80;74.80
51619;DHT22;38518;53.164;5.430;2023-03-24T17:58:46;10.70;84.60
51619;DHT22;38518;53.164;5.430;2023-03-24T18:01:15;10.50;78.20
51619;DHT22;38518;53.164;5.430;2023-03-24T18:03:43;8.70;63.20
51619;DHT22;38518;53.164;5.430;2023-03-24T18:06:10;10.40;91.60
51619;DHT22;38518;53.164;5.430;2023-03-24T18:08:36;10.40;77.50
51619;DHT22;38518;53.164;5.430;2023-03-24T18:11:11;10.50;85.30
51619;DHT22;38518;53.164;5.430;2023-03-24T18:13:37;10.30;81.70
51619;DHT22;38518;53.164;5.430;2023-03-24T18:16:04;12.20;97.90
51619;DHT22;38518;53.164;5.430;2023-03-24T18:18:35;10.30;93.50
51619;DHT22;38518;53.164;5.430;2023-03-24T18:21:06;10.20;87.80
51619;DHT22;38518;53.164;5.430;2023-03-24T18:23:33;10.30;91.10
51619;DHT22;38518;53.164;5.430;2023-03-24T18:26:02;10.10;98.60
51619;DHT22;38518;53.164;5.430;2023-03-24T18:28:30;10.20;99.90
51619;DHT22;38518;53.164;5.430;2023-03-24T18:30:59;10.20;99.90
51619;DHT22;38518;53.164;5.430;2023-03-24T18:33:25;10.50;99.90
51619;DHT22;38518;53.164;5.430;2023-03-24T18:35:58;10.20;99.90
51619;DHT22;38518;53.164;5.430;2023-03-24T18:38:24;11.70;99.90
51619;DHT22;38518;53.164;5.430;2023-03-24T18:41:01;8.90;99.90
51619;DHT22;38518;53.164;5.430;2023-03-24T18:43:27;10.10;99.90
51619;DHT22;38518;53.164;5.430;2023-03-24T18:45:55;10.00;99.90
51619;DHT22;38518;53.164;5.430;2023-03-24T18:48:21;10.40;99.90
51619;DHT22;38518;53.164;5.430;2023-03-24T18:50:51;10.30;99.90
51619;DHT22;38518;53.164;5.430;2023-03-24T18:53:18;10.00;99.90
51619;DHT22;38518;53.164;5.430;2023-03-24T18:55:48;10.90;99.90
51619;DHT22;38518;53.164;5.430;2023-03-24T18:58:15;10.10;99.90
51619;DHT22;38518;53.164;5.430;2023-03-24T19:00:52;10.00;99.90
51619;DHT22;38518;53.164;5.430;2023-03-24T19:03:18;9.70;99.90
51619;DHT22;38518;53.164;5.430;2023-03-24T19:05:46;10.30;99.90
51619;DHT22;38518;53.164;5.430;2023-03-24T19:08:14;10.00;99.90
51619;DHT22;38518;53.164;5.430;2023-03-24T19:10:41;9.90;99.90
51619;DHT22;38518;53.164;5.430;2023-03-24T19:13:09;10.30;99.90
51619;DHT22;38518;53.164;5.430;2023-03-24T19:15:35;10.10;99.90